sensor_id;sensor_type;location;lat;lon;timestamp;temperature;humidity
7360;DHT22;3720;48.274;7.796;2022-07-24T00:00:52;21.90;99.90
7360;DHT22;3720;48.274;7.796;2022-07-24T00:03:25;21.90;99.90
7360;DHT22;3720;48.274;7.796;2022-07-24T00:05:58;21.90;99.90
7360;DHT22;3720;48.274;7.796;2022-07-24T00:08:30;21.90;99.90
7360;DHT22;3720;48.274;7.796;2022-07-24T00:11:02;21.80;99.90
7360;DHT22;3720;48.274;7.796;2022-07-24T00:13:33;21.70;99.90
7360;DHT22;3720;48.274;7.796;2022-07-24T00:16:07;21.60;99.90
7360;DHT22;3720;48.274;7.796;2022-07-24T00:18:40;21.60;99.90
7360;DHT22;3720;48.274;7.796;2022-07-24T00:21:12;21.60;99.90
7360;DHT22;3720;48.274;7.796;2022-07-24T00:23:44;21.50;99.90
7360;DHT22;3720;48.274;7.796;2022-07-24T00:26:16;21.40;99.90
7360;DHT22;3720;48.274;7.796;2022-07-24T00:28:48;21.50;99.90
7360;DHT22;3720;48.274;7.796;2022-07-24T00:31:20;21.40;99.90
7360;DHT22;3720;48.274;7.796;2022-07-24T00:33:54;21.30;99.90
7360;DHT22;3720;48.274;7.796;2022-07-24T00:36:26;21.30;99.90
7360;DHT22;3720;48.274;7.796;2022-07-24T00:38:57;21.20;99.90
7360;DHT22;3720;48.274;7.796;2022-07-24T00:41:30;21.20;99.90
7360;DHT22;3720;48.274;7.796;2022-07-24T00:44:04;21.10;99.90
7360;DHT22;3720;48.274;7.796;2022-07-24T00:46:39;21.20;99.90
7360;DHT22;3720;48.274;7.796;2022-07-24T00:49:14;21.10;99.90
7360;DHT22;3720;48.274;7.796;2022-07-24T00:51:48;21.10;99.90
7360;DHT22;3720;48.274;7.796;2022-07-24T00:54:21;21.10;99.90
7360;DHT22;3720;48.274;7.796;2022-07-24T00:56:54;21.00;99.90
7360;DHT22;3720;48.274;7.796;2022-07-24T00:59:26;21.00;99.90
7360;DHT22;3720;48.274;7.796;2022-07-24T01:01:58;21.00;99.90
7360;DHT22;3720;48.274;7.796;2022-07-24T01:04:32;21.00;99.90
7360;DHT22;3720;48.274;7.796;2022-07-24T01:07:03;21.00;99.90
7360;DHT22;3720;48.274;7.796;2022-07-24T01:09:36;21.00;99.90
7360;DHT22;3720;48.274;7.796;2022-07-24T01:12:09;21.00;99.90
7360;DHT22;3720;48.274;7.796;2022-07-24T01:14:41;20.90;99.90
7360;DHT22;3720;48.274;7.796;2022-07-24T01:17:13;20.90;99.90
7360;DHT22;3720;48.274;7.796;2022-07-24T01:19:47;20.90;99.90
7360;DHT22;3720;48.274;7.796;2022-07-24T01:22:20;20.80;99.90
7360;DHT22;3720;48.274;7.796;2022-07-24T01:24:53;20.80;99.90
7360;DHT22;3720;48.274;7.796;2022-07-24T01:27:25;20.80;99.90
7360;DHT22;3720;48.274;7.796;2022-07-24T01:29:58;20.80;99.90
7360;DHT22;3720;48.274;7.796;2022-07-24T01:32:30;20.80;99.90
7360;DHT22;3720;48.274;7.796;2022-07-24T01:35:02;20.80;99.90
7360;DHT22;3720;48.274;7.796;2022-07-24T01:37:36;20.80;99.90
7360;DHT22;3720;48.274;7.796;2022-07-24T01:40:09;20.80;99.90
7360;DHT22;3720;48.274;7.796;2022-07-24T01:42:41;20.70;99.90
7360;DHT22;3720;48.274;7.796;2022-07-24T01:45:14;20.70;99.90
7360;DHT22;3720;48.274;7.796;2022-07-24T01:47:46;20.70;99.90
7360;DHT22;3720;48.274;7.796;2022-07-24T01:50:18;20.60;99.90
7360;DHT22;3720;48.274;7.796;2022-07-24T01:52:51;20.60;99.90
7360;DHT22;3720;48.274;7.796;2022-07-24T01:55:24;20.50;99.90
7360;DHT22;3720;48.274;7.796;2022-07-24T01:57:56;20.50;99.90
7360;DHT22;3720;48.274;7.796;2022-07-24T02:00:28;20.40;99.90
7360;DHT22;3720;48.274;7.796;2022-07-24T02:03:01;20.40;99.90
7360;DHT22;3720;48.274;7.796;2022-07-24T02:05:33;20.30;99.90
7360;DHT22;3720;48.274;7.796;2022-07-24T02:08:06;20.40;99.90
7360;DHT22;3720;48.274;7.796;2022-07-24T02:10:39;20.30;99.90
7360;DHT22;3720;48.274;7.796;2022-07-24T02:13:11;20.30;99.90
7360;DHT22;3720;48.274;7.796;2022-07-24T02:15:43;20.30;99.90
7360;DHT22;3720;48.274;7.796;2022-07-24T02:18:14;20.40;99.90
7360;DHT22;3720;48.274;7.796;2022-07-24T02:20:46;20.30;99.90
7360;DHT22;3720;48.274;7.796;2022-07-24T02:23:20;20.30;99.90
7360;DHT22;3720;48.274;7.796;2022-07-24T02:25:52;20.30;99.90
7360;DHT22;3720;48.274;7.796;2022-07-24T02:28:24;20.30;99.90
7360;DHT22;3720;48.274;7.796;2022-07-24T02:30:56;20.30;99.90
7360;DHT22;3720;48.274;7.796;2022-07-24T02:33:28;20.20;99.90
7360;DHT22;3720;48.274;7.796;2022-07-24T02:36:00;20.10;99.90
7360;DHT22;3720;48.274;7.796;2022-07-24T02:38:34;20.10;99.90
7360;DHT22;3720;48.274;7.796;2022-07-24T02:41:06;20.10;99.90
7360;DHT22;3720;48.274;7.796;2022-07-24T02:43:38;20.10;99.90
7360;DHT22;3720;48.274;7.796;2022-07-24T02:46:10;20.10;99.90
7360;DHT22;3720;48.274;7.796;2022-07-24T02:48:42;20.00;99.90
7360;DHT22;3720;48.274;7.796;2022-07-24T02:51:15;20.00;99.90
7360;DHT22;3720;48.274;7.796;2022-07-24T02:53:48;20.00;99.90
7360;DHT22;3720;48.274;7.796;2022-07-24T02:56:20;20.10;99.90
7360;DHT22;3720;48.274;7.796;2022-07-24T02:58:52;20.10;99.90
7360;DHT22;3720;48.274;7.796;2022-07-24T03:01:24;20.00;99.90
7360;DHT22;3720;48.274;7.796;2022-07-24T03:03:56;19.90;99.90
7360;DHT22;3720;48.274;7.796;2022-07-24T03:06:29;19.90;99.90
7360;DHT22;3720;48.274;7.796;2022-07-24T03:09:03;19.90;99.90
7360;DHT22;3720;48.274;7.796;2022-07-24T03:11:35;19.80;99.90
7360;DHT22;3720;48.274;7.796;2022-07-24T03:14:07;19.80;99.90
7360;DHT22;3720;48.274;7.796;2022-07-24T03:16:39;19.80;99.90
7360;DHT22;3720;48.274;7.796;2022-07-24T03:19:11;19.70;99.90
7360;DHT22;3720;48.274;7.796;2022-07-24T03:21:43;19.60;99.90
7360;DHT22;3720;48.274;7.796;2022-07-24T03:24:16;19.50;99.90
7360;DHT22;3720;48.274;7.796;2022-07-24T03:26:48;19.50;99.90
7360;DHT22;3720;48.274;7.796;2022-07-24T03:29:20;19.40;99.90
7360;DHT22;3720;48.274;7.796;2022-07-24T03:31:52;19.40;99.90
7360;DHT22;3720;48.274;7.796;2022-07-24T03:34:24;19.40;99.90
7360;DHT22;3720;48.274;7.796;2022-07-24T03:36:56;19.40;99.90
7360;DHT22;3720;48.274;7.796;2022-07-24T03:39:29;19.40;99.90
7360;DHT22;3720;48.274;7.796;2022-07-24T03:42:01;19.40;99.90
7360;DHT22;3720;48.274;7.796;2022-07-24T03:44:33;19.40;99.90
7360;DHT22;3720;48.274;7.796;2022-07-24T03:47:05;19.40;99.90
7360;DHT22;3720;48.274;7.796;2022-07-24T03:49:37;19.40;99.90
7360;DHT22;3720;48.274;7.796;2022-07-24T03:52:09;19.40;99.90
7360;DHT22;3720;48.274;7.796;2022-07-24T03:54:43;19.40;99.90
7360;DHT22;3720;48.274;7.796;2022-07-24T03:57:15;19.50;99.90
7360;DHT22;3720;48.274;7.796;2022-07-24T03:59:47;19.50;99.90
7360;DHT22;3720;48.274;7.796;2022-07-24T04:02:19;19.50;99.90
7360;DHT22;3720;48.274;7.796;2022-07-24T04:04:51;19.40;99.90
7360;DHT22;3720;48.274;7.796;2022-07-24T04:07:23;19.40;99.90
7360;DHT22;3720;48.274;7.796;2022-07-24T04:09:57;19.40;99.90
7360;DHT22;3720;48.274;7.796;2022-07-24T04:12:28;19.40;99.90
7360;DHT22;3720;48.274;7.796;2022-07-24T04:15:00;19.30;99.90
7360;DHT22;3720;48.274;7.796;2022-07-24T04:17:32;19.20;99.90
7360;DHT22;3720;48.274;7.796;2022-07-24T04:20:05;19.20;99.90
7360;DHT22;3720;48.274;7.796;2022-07-24T04:22:38;19.10;99.90
7360;DHT22;3720;48.274;7.796;2022-07-24T04:25:11;19.10;99.90
7360;DHT22;3720;48.274;7.796;2022-07-24T04:27:43;19.10;99.90
7360;DHT22;3720;48.274;7.796;2022-07-24T04:30:17;19.20;99.90
7360;DHT22;3720;48.274;7.796;2022-07-24T04:32:49;19.20;99.90
7360;DHT22;3720;48.274;7.796;2022-07-24T04:35:21;19.20;99.90
7360;DHT22;3720;48.274;7.796;2022-07-24T04:37:53;19.20;99.90
7360;DHT22;3720;48.274;7.796;2022-07-24T04:40:27;19.20;99.90
7360;DHT22;3720;48.274;7.796;2022-07-24T04:42:59;19.20;99.90
7360;DHT22;3720;48.274;7.796;2022-07-24T04:45:31;19.20;99.90
7360;DHT22;3720;48.274;7.796;2022-07-24T04:48:05;19.20;99.90
7360;DHT22;3720;48.274;7.796;2022-07-24T04:50:37;19.20;99.90
7360;DHT22;3720;48.274;7.796;2022-07-24T04:53:09;19.30;99.90
7360;DHT22;3720;48.274;7.796;2022-07-24T04:55:42;19.40;99.90
7360;DHT22;3720;48.274;7.796;2022-07-24T04:58:14;19.40;99.90
7360;DHT22;3720;48.274;7.796;2022-07-24T05:00:46;19.40;99.90
7360;DHT22;3720;48.274;7.796;2022-07-24T05:03:19;19.50;99.90
7360;DHT22;3720;48.274;7.796;2022-07-24T05:05:50;19.50;99.90
7360;DHT22;3720;48.274;7.796;2022-07-24T05:08:22;19.50;99.90
7360;DHT22;3720;48.274;7.796;2022-07-24T05:10:56;19.50;99.90
7360;DHT22;3720;48.274;7.796;2022-07-24T05:13:28;19.50;99.90
7360;DHT22;3720;48.274;7.796;2022-07-24T05:16:00;19.60;99.90
7360;DHT22;3720;48.274;7.796;2022-07-24T05:18:32;19.60;99.90
7360;DHT22;3720;48.274;7.796;2022-07-24T05:21:04;19.60;99.90
7360;DHT22;3720;48.274;7.796;2022-07-24T05:23:37;19.60;99.90
7360;DHT22;3720;48.274;7.796;2022-07-24T05:26:11;19.70;99.90
7360;DHT22;3720;48.274;7.796;2022-07-24T05:28:43;19.70;99.90
7360;DHT22;3720;48.274;7.796;2022-07-24T05:31:15;19.80;99.90
7360;DHT22;3720;48.274;7.796;2022-07-24T05:33:47;19.80;99.90
7360;DHT22;3720;48.274;7.796;2022-07-24T05:36:20;19.90;99.90
7360;DHT22;3720;48.274;7.796;2022-07-24T05:38:52;19.90;99.90
7360;DHT22;3720;48.274;7.796;2022-07-24T05:41:25;19.90;99.90
7360;DHT22;3720;48.274;7.796;2022-07-24T05:43:57;20.00;99.90
7360;DHT22;3720;48.274;7.796;2022-07-24T05:46:28;20.00;99.90
7360;DHT22;3720;48.274;7.796;2022-07-24T05:49:01;20.10;99.90
7360;DHT22;3720;48.274;7.796;2022-07-24T05:51:33;20.20;99.90
7360;DHT22;3720;48.274;7.796;2022-07-24T05:54:05;20.20;99.90
7360;DHT22;3720;48.274;7.796;2022-07-24T05:56:39;20.30;99.90
7360;DHT22;3720;48.274;7.796;2022-07-24T05:59:10;20.40;99.90
7360;DHT22;3720;48.274;7.796;2022-07-24T06:01:42;20.50;99.90
7360;DHT22;3720;48.274;7.796;2022-07-24T06:04:14;20.60;99.90
7360;DHT22;3720;48.274;7.796;2022-07-24T06:06:46;20.70;99.90
7360;DHT22;3720;48.274;7.796;2022-07-24T06:09:18;20.80;99.90
7360;DHT22;3720;48.274;7.796;2022-07-24T06:11:52;20.90;99.90
7360;DHT22;3720;48.274;7.796;2022-07-24T06:14:23;21.00;99.90
7360;DHT22;3720;48.274;7.796;2022-07-24T06:16:56;21.10;99.90
7360;DHT22;3720;48.274;7.796;2022-07-24T06:19:28;21.20;99.90
7360;DHT22;3720;48.274;7.796;2022-07-24T06:21:59;21.20;99.90
7360;DHT22;3720;48.274;7.796;2022-07-24T06:24:31;21.40;99.90
7360;DHT22;3720;48.274;7.796;2022-07-24T06:27:05;21.40;99.90
7360;DHT22;3720;48.274;7.796;2022-07-24T06:29:37;21.50;99.90
7360;DHT22;3720;48.274;7.796;2022-07-24T06:32:10;21.60;99.90
7360;DHT22;3720;48.274;7.796;2022-07-24T06:34:41;21.70;99.90
7360;DHT22;3720;48.274;7.796;2022-07-24T06:37:13;21.80;99.90
7360;DHT22;3720;48.274;7.796;2022-07-24T06:39:45;21.90;99.90
7360;DHT22;3720;48.274;7.796;2022-07-24T06:42:19;21.90;99.90
7360;DHT22;3720;48.274;7.796;2022-07-24T06:44:51;22.00;99.90
7360;DHT22;3720;48.274;7.796;2022-07-24T06:47:22;22.00;99.90
7360;DHT22;3720;48.274;7.796;2022-07-24T06:49:56;22.10;99.90
7360;DHT22;3720;48.274;7.796;2022-07-24T06:52:28;22.20;99.90
7360;DHT22;3720;48.274;7.796;2022-07-24T06:55:01;22.30;99.90
7360;DHT22;3720;48.274;7.796;2022-07-24T06:57:34;22.40;99.90
7360;DHT22;3720;48.274;7.796;2022-07-24T07:00:09;22.50;99.90
7360;DHT22;3720;48.274;7.796;2022-07-24T07:02:41;22.60;99.90
7360;DHT22;3720;48.274;7.796;2022-07-24T07:05:13;22.70;99.90
7360;DHT22;3720;48.274;7.796;2022-07-24T07:07:46;22.80;99.90
7360;DHT22;3720;48.274;7.796;2022-07-24T07:10:18;22.90;99.90
7360;DHT22;3720;48.274;7.796;2022-07-24T07:12:51;23.00;99.90
7360;DHT22;3720;48.274;7.796;2022-07-24T07:15:23;23.00;99.90
7360;DHT22;3720;48.274;7.796;2022-07-24T07:17:55;23.10;99.90
7360;DHT22;3720;48.274;7.796;2022-07-24T07:20:27;23.20;99.90
7360;DHT22;3720;48.274;7.796;2022-07-24T07:22:59;23.40;99.90
7360;DHT22;3720;48.274;7.796;2022-07-24T07:25:31;23.50;99.90
7360;DHT22;3720;48.274;7.796;2022-07-24T07:28:05;23.70;99.90
7360;DHT22;3720;48.274;7.796;2022-07-24T07:30:36;23.80;99.90
7360;DHT22;3720;48.274;7.796;2022-07-24T07:33:09;24.00;99.90
7360;DHT22;3720;48.274;7.796;2022-07-24T07:35:40;24.10;99.90
7360;DHT22;3720;48.274;7.796;2022-07-24T07:38:12;24.20;99.90
7360;DHT22;3720;48.274;7.796;2022-07-24T07:40:45;24.40;99.90
7360;DHT22;3720;48.274;7.796;2022-07-24T07:43:18;24.50;99.90
7360;DHT22;3720;48.274;7.796;2022-07-24T07:45:51;24.60;99.90
7360;DHT22;3720;48.274;7.796;2022-07-24T07:48:23;24.70;99.90
7360;DHT22;3720;48.274;7.796;2022-07-24T07:50:55;24.70;99.90
7360;DHT22;3720;48.274;7.796;2022-07-24T07:53:27;24.90;99.90
7360;DHT22;3720;48.274;7.796;2022-07-24T07:55:59;25.00;99.90
7360;DHT22;3720;48.274;7.796;2022-07-24T07:58:33;25.10;99.90
7360;DHT22;3720;48.274;7.796;2022-07-24T08:01:05;25.30;99.90
7360;DHT22;3720;48.274;7.796;2022-07-24T08:03:37;25.30;99.90
7360;DHT22;3720;48.274;7.796;2022-07-24T08:06:09;25.50;99.90
7360;DHT22;3720;48.274;7.796;2022-07-24T08:08:41;25.50;99.90
7360;DHT22;3720;48.274;7.796;2022-07-24T08:11:13;25.70;99.90
7360;DHT22;3720;48.274;7.796;2022-07-24T08:13:47;25.70;99.90
7360;DHT22;3720;48.274;7.796;2022-07-24T08:16:18;25.90;99.90
7360;DHT22;3720;48.274;7.796;2022-07-24T08:18:50;25.90;99.90
7360;DHT22;3720;48.274;7.796;2022-07-24T08:21:22;26.10;99.90
7360;DHT22;3720;48.274;7.796;2022-07-24T08:23:54;26.20;99.90
7360;DHT22;3720;48.274;7.796;2022-07-24T08:26:26;26.30;99.90
7360;DHT22;3720;48.274;7.796;2022-07-24T08:29:02;26.50;99.90
7360;DHT22;3720;48.274;7.796;2022-07-24T08:31:35;26.60;99.90
7360;DHT22;3720;48.274;7.796;2022-07-24T08:34:06;26.70;99.90
7360;DHT22;3720;48.274;7.796;2022-07-24T08:36:38;26.80;99.90
7360;DHT22;3720;48.274;7.796;2022-07-24T08:39:11;26.90;99.90
7360;DHT22;3720;48.274;7.796;2022-07-24T08:41:44;27.00;99.90
7360;DHT22;3720;48.274;7.796;2022-07-24T08:44:17;27.10;99.90
7360;DHT22;3720;48.274;7.796;2022-07-24T08:46:50;27.20;99.90
7360;DHT22;3720;48.274;7.796;2022-07-24T08:49:27;27.30;99.90
7360;DHT22;3720;48.274;7.796;2022-07-24T08:52:04;27.40;99.90
7360;DHT22;3720;48.274;7.796;2022-07-24T08:54:39;27.50;99.90
7360;DHT22;3720;48.274;7.796;2022-07-24T08:57:11;27.70;99.90
7360;DHT22;3720;48.274;7.796;2022-07-24T08:59:45;27.80;99.90
7360;DHT22;3720;48.274;7.796;2022-07-24T09:02:17;27.90;99.90
7360;DHT22;3720;48.274;7.796;2022-07-24T09:04:49;28.00;99.90
7360;DHT22;3720;48.274;7.796;2022-07-24T09:07:22;28.00;99.90
7360;DHT22;3720;48.274;7.796;2022-07-24T09:10:00;28.00;99.90
7360;DHT22;3720;48.274;7.796;2022-07-24T09:12:34;28.10;99.90
7360;DHT22;3720;48.274;7.796;2022-07-24T09:15:14;28.30;99.90
7360;DHT22;3720;48.274;7.796;2022-07-24T09:17:48;28.40;99.90
7360;DHT22;3720;48.274;7.796;2022-07-24T09:20:21;28.50;99.90
7360;DHT22;3720;48.274;7.796;2022-07-24T09:22:57;28.60;99.90
7360;DHT22;3720;48.274;7.796;2022-07-24T09:25:29;28.70;99.90
7360;DHT22;3720;48.274;7.796;2022-07-24T09:28:03;28.90;99.90
7360;DHT22;3720;48.274;7.796;2022-07-24T09:30:41;29.00;99.90
7360;DHT22;3720;48.274;7.796;2022-07-24T09:33:15;29.20;99.90
7360;DHT22;3720;48.274;7.796;2022-07-24T09:35:49;29.30;99.90
7360;DHT22;3720;48.274;7.796;2022-07-24T09:38:24;29.40;99.90
7360;DHT22;3720;48.274;7.796;2022-07-24T09:40:57;29.60;99.90
7360;DHT22;3720;48.274;7.796;2022-07-24T09:43:31;29.70;99.90
7360;DHT22;3720;48.274;7.796;2022-07-24T09:46:08;29.90;99.90
7360;DHT22;3720;48.274;7.796;2022-07-24T09:48:51;30.00;99.90
7360;DHT22;3720;48.274;7.796;2022-07-24T09:51:26;30.10;99.90
7360;DHT22;3720;48.274;7.796;2022-07-24T09:53:59;30.30;99.90
7360;DHT22;3720;48.274;7.796;2022-07-24T09:56:31;30.40;99.90
7360;DHT22;3720;48.274;7.796;2022-07-24T09:59:04;30.50;99.90
7360;DHT22;3720;48.274;7.796;2022-07-24T10:01:43;30.50;99.90
7360;DHT22;3720;48.274;7.796;2022-07-24T10:04:19;30.60;99.90
7360;DHT22;3720;48.274;7.796;2022-07-24T10:06:52;30.70;99.90
7360;DHT22;3720;48.274;7.796;2022-07-24T10:09:26;30.80;99.90
7360;DHT22;3720;48.274;7.796;2022-07-24T10:12:03;30.90;99.90
7360;DHT22;3720;48.274;7.796;2022-07-24T10:14:38;30.90;99.90
7360;DHT22;3720;48.274;7.796;2022-07-24T10:17:12;31.10;99.90
7360;DHT22;3720;48.274;7.796;2022-07-24T10:19:46;31.30;99.90
7360;DHT22;3720;48.274;7.796;2022-07-24T10:22:20;31.40;99.90
7360;DHT22;3720;48.274;7.796;2022-07-24T10:24:55;31.60;99.90
7360;DHT22;3720;48.274;7.796;2022-07-24T10:27:30;31.80;99.90
7360;DHT22;3720;48.274;7.796;2022-07-24T10:30:04;31.90;99.90
7360;DHT22;3720;48.274;7.796;2022-07-24T10:32:38;32.10;99.90
7360;DHT22;3720;48.274;7.796;2022-07-24T10:35:13;32.20;99.90
7360;DHT22;3720;48.274;7.796;2022-07-24T10:37:53;32.30;99.90
7360;DHT22;3720;48.274;7.796;2022-07-24T10:40:33;32.30;99.30
7360;DHT22;3720;48.274;7.796;2022-07-24T10:43:14;32.40;99.40
7360;DHT22;3720;48.274;7.796;2022-07-24T10:46:10;32.30;97.10
7360;DHT22;3720;48.274;7.796;2022-07-24T10:48:44;32.40;96.60
7360;DHT22;3720;48.274;7.796;2022-07-24T10:51:16;32.60;96.40
7360;DHT22;3720;48.274;7.796;2022-07-24T10:53:53;32.70;95.30
7360;DHT22;3720;48.274;7.796;2022-07-24T10:56:28;32.70;96.80
7360;DHT22;3720;48.274;7.796;2022-07-24T10:59:11;32.90;96.80
7360;DHT22;3720;48.274;7.796;2022-07-24T11:01:45;33.10;95.80
7360;DHT22;3720;48.274;7.796;2022-07-24T11:04:27;33.30;94.30
7360;DHT22;3720;48.274;7.796;2022-07-24T11:07:08;33.30;95.50
7360;DHT22;3720;48.274;7.796;2022-07-24T11:10:04;33.50;94.50
7360;DHT22;3720;48.274;7.796;2022-07-24T11:12:42;33.70;93.90
7360;DHT22;3720;48.274;7.796;2022-07-24T11:15:14;33.60;92.90
7360;DHT22;3720;48.274;7.796;2022-07-24T11:18:13;33.50;92.50
7360;DHT22;3720;48.274;7.796;2022-07-24T11:20:47;33.50;91.70
7360;DHT22;3720;48.274;7.796;2022-07-24T11:23:20;33.60;90.10
7360;DHT22;3720;48.274;7.796;2022-07-24T11:26:38;33.70;88.90
7360;DHT22;3720;48.274;7.796;2022-07-24T11:29:12;33.80;89.80
7360;DHT22;3720;48.274;7.796;2022-07-24T11:31:47;33.90;86.00
7360;DHT22;3720;48.274;7.796;2022-07-24T11:34:19;34.10;87.80
7360;DHT22;3720;48.274;7.796;2022-07-24T11:36:54;34.20;85.20
7360;DHT22;3720;48.274;7.796;2022-07-24T11:39:29;34.20;85.60
7360;DHT22;3720;48.274;7.796;2022-07-24T11:42:03;34.40;86.00
7360;DHT22;3720;48.274;7.796;2022-07-24T11:44:37;34.60;78.20
7360;DHT22;3720;48.274;7.796;2022-07-24T11:47:12;34.70;79.40
7360;DHT22;3720;48.274;7.796;2022-07-24T11:49:46;34.90;83.50
7360;DHT22;3720;48.274;7.796;2022-07-24T11:52:23;34.70;78.50
7360;DHT22;3720;48.274;7.796;2022-07-24T11:54:57;34.60;75.80
7360;DHT22;3720;48.274;7.796;2022-07-24T11:57:31;34.80;80.20
7360;DHT22;3720;48.274;7.796;2022-07-24T12:00:05;35.00;78.00
7360;DHT22;3720;48.274;7.796;2022-07-24T12:02:43;35.30;75.70
7360;DHT22;3720;48.274;7.796;2022-07-24T12:05:24;35.60;73.30
7360;DHT22;3720;48.274;7.796;2022-07-24T12:08:02;35.70;68.70
7360;DHT22;3720;48.274;7.796;2022-07-24T12:10:34;35.70;69.70
7360;DHT22;3720;48.274;7.796;2022-07-24T12:13:06;35.80;74.60
7360;DHT22;3720;48.274;7.796;2022-07-24T12:15:38;35.80;70.60
7360;DHT22;3720;48.274;7.796;2022-07-24T12:18:10;36.10;69.20
7360;DHT22;3720;48.274;7.796;2022-07-24T12:20:44;36.20;67.60
7360;DHT22;3720;48.274;7.796;2022-07-24T12:23:18;36.30;67.40
7360;DHT22;3720;48.274;7.796;2022-07-24T12:25:50;36.20;65.40
7360;DHT22;3720;48.274;7.796;2022-07-24T12:28:23;36.10;66.40
7360;DHT22;3720;48.274;7.796;2022-07-24T12:30:55;36.20;66.60
7360;DHT22;3720;48.274;7.796;2022-07-24T12:33:28;36.30;63.50
7360;DHT22;3720;48.274;7.796;2022-07-24T12:36:05;36.40;62.70
7360;DHT22;3720;48.274;7.796;2022-07-24T12:38:51;36.30;65.20
7360;DHT22;3720;48.274;7.796;2022-07-24T12:41:25;36.40;65.40
7360;DHT22;3720;48.274;7.796;2022-07-24T12:43:58;36.70;66.40
7360;DHT22;3720;48.274;7.796;2022-07-24T12:46:32;37.00;65.10
7360;DHT22;3720;48.274;7.796;2022-07-24T12:49:06;37.30;63.30
7360;DHT22;3720;48.274;7.796;2022-07-24T12:51:46;37.40;61.60
7360;DHT22;3720;48.274;7.796;2022-07-24T12:54:21;37.20;61.90
7360;DHT22;3720;48.274;7.796;2022-07-24T12:56:55;37.30;62.20
7360;DHT22;3720;48.274;7.796;2022-07-24T12:59:29;37.40;60.10
7360;DHT22;3720;48.274;7.796;2022-07-24T13:02:04;37.50;60.10
7360;DHT22;3720;48.274;7.796;2022-07-24T13:04:41;37.70;59.80
7360;DHT22;3720;48.274;7.796;2022-07-24T13:07:16;37.80;56.30
7360;DHT22;3720;48.274;7.796;2022-07-24T13:09:50;37.70;56.10
7360;DHT22;3720;48.274;7.796;2022-07-24T13:12:23;37.60;56.30
7360;DHT22;3720;48.274;7.796;2022-07-24T13:14:55;37.60;58.80
7360;DHT22;3720;48.274;7.796;2022-07-24T13:17:27;37.70;59.30
7360;DHT22;3720;48.274;7.796;2022-07-24T13:19:59;37.80;57.90
7360;DHT22;3720;48.274;7.796;2022-07-24T13:22:32;38.00;57.70
7360;DHT22;3720;48.274;7.796;2022-07-24T13:25:07;38.20;56.50
7360;DHT22;3720;48.274;7.796;2022-07-24T13:27:39;38.40;55.70
7360;DHT22;3720;48.274;7.796;2022-07-24T13:30:12;38.60;54.70
7360;DHT22;3720;48.274;7.796;2022-07-24T13:32:45;38.60;53.40
7360;DHT22;3720;48.274;7.796;2022-07-24T13:35:16;38.40;53.90
7360;DHT22;3720;48.274;7.796;2022-07-24T13:37:48;38.30;53.90
7360;DHT22;3720;48.274;7.796;2022-07-24T13:40:22;38.40;53.90
7360;DHT22;3720;48.274;7.796;2022-07-24T13:42:54;38.40;52.60
7360;DHT22;3720;48.274;7.796;2022-07-24T13:45:26;38.40;53.60
7360;DHT22;3720;48.274;7.796;2022-07-24T13:47:58;38.60;53.60
7360;DHT22;3720;48.274;7.796;2022-07-24T13:50:30;38.70;50.30
7360;DHT22;3720;48.274;7.796;2022-07-24T13:53:02;38.80;52.20
7360;DHT22;3720;48.274;7.796;2022-07-24T13:55:37;38.90;52.70
7360;DHT22;3720;48.274;7.796;2022-07-24T13:58:09;38.90;51.70
7360;DHT22;3720;48.274;7.796;2022-07-24T14:00:41;39.00;52.20
7360;DHT22;3720;48.274;7.796;2022-07-24T14:03:13;39.10;52.60
7360;DHT22;3720;48.274;7.796;2022-07-24T14:05:45;39.20;51.00
7360;DHT22;3720;48.274;7.796;2022-07-24T14:08:17;39.30;51.60
7360;DHT22;3720;48.274;7.796;2022-07-24T14:10:51;39.50;52.20
7360;DHT22;3720;48.274;7.796;2022-07-24T14:13:23;39.30;50.00
7360;DHT22;3720;48.274;7.796;2022-07-24T14:15:55;39.00;50.00
7360;DHT22;3720;48.274;7.796;2022-07-24T14:18:27;38.80;49.60
7360;DHT22;3720;48.274;7.796;2022-07-24T14:20:59;38.40;51.10
7360;DHT22;3720;48.274;7.796;2022-07-24T14:23:31;38.30;50.10
7360;DHT22;3720;48.274;7.796;2022-07-24T14:26:05;38.20;51.80
7360;DHT22;3720;48.274;7.796;2022-07-24T14:28:37;38.20;49.90
7360;DHT22;3720;48.274;7.796;2022-07-24T14:31:09;38.10;52.80
7360;DHT22;3720;48.274;7.796;2022-07-24T14:33:42;37.90;54.70
7360;DHT22;3720;48.274;7.796;2022-07-24T14:36:14;37.80;51.90
7360;DHT22;3720;48.274;7.796;2022-07-24T14:38:46;37.80;52.70
7360;DHT22;3720;48.274;7.796;2022-07-24T14:41:19;37.80;52.70
7360;DHT22;3720;48.274;7.796;2022-07-24T14:43:51;37.80;50.00
7360;DHT22;3720;48.274;7.796;2022-07-24T14:46:23;37.80;52.60
7360;DHT22;3720;48.274;7.796;2022-07-24T14:48:55;38.00;50.20
7360;DHT22;3720;48.274;7.796;2022-07-24T14:51:27;38.30;51.30
7360;DHT22;3720;48.274;7.796;2022-07-24T14:53:59;38.50;51.50
7360;DHT22;3720;48.274;7.796;2022-07-24T14:56:32;38.70;50.80
7360;DHT22;3720;48.274;7.796;2022-07-24T14:59:04;38.90;51.30
7360;DHT22;3720;48.274;7.796;2022-07-24T15:01:36;39.00;49.90
7360;DHT22;3720;48.274;7.796;2022-07-24T15:04:08;39.20;50.60
7360;DHT22;3720;48.274;7.796;2022-07-24T15:06:40;39.30;50.40
7360;DHT22;3720;48.274;7.796;2022-07-24T15:09:12;39.50;51.10
7360;DHT22;3720;48.274;7.796;2022-07-24T15:11:46;39.50;50.30
7360;DHT22;3720;48.274;7.796;2022-07-24T15:14:18;39.40;49.00
7360;DHT22;3720;48.274;7.796;2022-07-24T15:16:50;39.30;49.00
7360;DHT22;3720;48.274;7.796;2022-07-24T15:19:22;39.20;49.10
7360;DHT22;3720;48.274;7.796;2022-07-24T15:21:54;39.20;49.90
7360;DHT22;3720;48.274;7.796;2022-07-24T15:24:25;39.20;49.80
7360;DHT22;3720;48.274;7.796;2022-07-24T15:26:59;39.20;48.00
7360;DHT22;3720;48.274;7.796;2022-07-24T15:29:31;39.20;48.10
7360;DHT22;3720;48.274;7.796;2022-07-24T15:32:04;39.20;49.20
7360;DHT22;3720;48.274;7.796;2022-07-24T15:34:36;39.10;50.80
7360;DHT22;3720;48.274;7.796;2022-07-24T15:37:07;39.10;49.30
7360;DHT22;3720;48.274;7.796;2022-07-24T15:39:40;39.00;48.50
7360;DHT22;3720;48.274;7.796;2022-07-24T15:42:13;38.90;49.40
7360;DHT22;3720;48.274;7.796;2022-07-24T15:44:45;38.90;48.30
7360;DHT22;3720;48.274;7.796;2022-07-24T15:47:17;38.80;49.80
7360;DHT22;3720;48.274;7.796;2022-07-24T15:49:49;38.80;48.00
7360;DHT22;3720;48.274;7.796;2022-07-24T15:52:21;38.80;48.90
7360;DHT22;3720;48.274;7.796;2022-07-24T15:54:53;38.80;48.90
7360;DHT22;3720;48.274;7.796;2022-07-24T15:57:26;38.80;48.20
7360;DHT22;3720;48.274;7.796;2022-07-24T15:59:58;38.70;48.40
7360;DHT22;3720;48.274;7.796;2022-07-24T16:02:30;38.70;47.60
7360;DHT22;3720;48.274;7.796;2022-07-24T16:05:03;38.70;49.30
7360;DHT22;3720;48.274;7.796;2022-07-24T16:07:36;38.50;50.00
7360;DHT22;3720;48.274;7.796;2022-07-24T16:10:09;38.40;47.50
7360;DHT22;3720;48.274;7.796;2022-07-24T16:12:42;38.20;47.70
7360;DHT22;3720;48.274;7.796;2022-07-24T16:15:15;38.00;48.60
7360;DHT22;3720;48.274;7.796;2022-07-24T16:17:47;37.80;50.00
7360;DHT22;3720;48.274;7.796;2022-07-24T16:20:20;37.80;51.20
7360;DHT22;3720;48.274;7.796;2022-07-24T16:22:52;37.90;49.10
7360;DHT22;3720;48.274;7.796;2022-07-24T16:25:24;37.80;50.00
7360;DHT22;3720;48.274;7.796;2022-07-24T16:27:57;37.70;51.70
7360;DHT22;3720;48.274;7.796;2022-07-24T16:30:30;37.60;51.90
7360;DHT22;3720;48.274;7.796;2022-07-24T16:33:01;37.50;52.00
7360;DHT22;3720;48.274;7.796;2022-07-24T16:35:34;37.50;50.50
7360;DHT22;3720;48.274;7.796;2022-07-24T16:38:06;37.30;51.60
7360;DHT22;3720;48.274;7.796;2022-07-24T16:40:38;37.30;52.00